Weirs Beach, New Hampshire
Current Conditions -  °F | °C
As of 5:55 PM on Monday 24 Nov 2014 (Local Time) from KLCI Reporting Station
Overcast Overcast  
Wind Chill: 63°   Ceiling: 3800
Heat Index: 63°   Visibility: 10mi
Dew Point: 55°   Wind: 16mph
Humidity: 77%   Direction: 210°SSW
Pressure: 29.52"   Gusts: 21mph
Location:  43.5478°N, 71.4074°W
Report Text: KLCI 242255Z AUTO 21014G18KT 10SM SCT031 OVC038 17/13 A2952 RMK AO1
Loading
Personal Weather Stations






























Interactive Weather Map New forecast layout! Learn more

10-Day Weather Forecast

Advertisements
Track Severe Weather on mobile